Time;durP1;ratioP1;P1;durP2;ratioP2;P2;SDS_P1;SDS_P2;PMS_P1;PMS_P2;Temp;Humidity;BMP_temperature;BMP_pressure;BME280_temperature;BME280_humidity;BME280_pressure;Samples;Min_cycle;Max_cycle;Signal;HPM_P1;HPM_P2
2022/01/05 00:00:20;;;;;;;5.97;2.00;;;11.20;89.10;;;;;;5051582;28;20024;-82
2022/01/05 00:02:46;;;;;;;7.32;2.03;;;11.20;89.10;;;;;;5056156;28;20473;-82
2022/01/05 00:05:11;;;;;;;4.80;1.90;;;11.20;89.20;;;;;;5055030;28;20021;-83
2022/01/05 00:07:37;;;;;;;9.13;2.45;;;11.20;89.20;;;;;;5055066;28;20021;-83
2022/01/05 00:10:04;;;;;;;6.53;2.13;;;11.20;89.20;;;;;;5055076;28;20485;-82
2022/01/05 00:12:29;;;;;;;6.80;2.22;;;11.20;89.10;;;;;;5054655;28;20078;-82
2022/01/05 00:14:55;;;;;;;6.05;1.85;;;11.20;89.60;;;;;;5056068;28;20036;-82
2022/01/05 00:17:20;;;;;;;5.30;2.00;;;11.20;90.10;;;;;;5056041;28;20029;-82
2022/01/05 00:19:46;;;;;;;7.50;2.78;;;11.20;90.00;;;;;;5054616;28;20397;-82
2022/01/05 00:22:11;;;;;;;4.72;1.92;;;11.20;90.00;;;;;;5054546;28;20024;-82
2022/01/05 00:24:37;;;;;;;7.18;2.17;;;11.20;90.00;;;;;;5054511;28;20022;-83
2022/01/05 00:27:05;;;;;;;7.38;1.90;;;11.20;90.00;;;;;;5054679;28;20398;-82
2022/01/05 00:29:31;;;;;;;6.28;2.20;;;11.30;89.80;;;;;;5054483;28;20036;-82
2022/01/05 00:31:56;;;;;;;7.80;2.75;;;11.30;89.60;;;;;;5055490;28;20029;-83
2022/01/05 00:34:22;;;;;;;8.02;2.17;;;11.30;89.30;;;;;;5054431;28;20025;-83
2022/01/05 00:36:48;;;;;;;8.38;2.10;;;11.30;89.60;;;;;;5054470;28;20394;-83
2022/01/05 00:39:13;;;;;;;7.68;2.03;;;11.30;89.50;;;;;;5054550;28;20036;-82
2022/01/05 00:41:39;;;;;;;7.63;2.63;;;11.30;89.30;;;;;;5054148;28;20055;-83
2022/01/05 00:44:05;;;;;;;6.35;2.05;;;11.30;89.40;;;;;;5054480;28;20544;-82
2022/01/05 00:46:30;;;;;;;5.63;2.70;;;11.30;89.30;;;;;;5034794;28;20025;-82
2022/01/05 00:48:56;;;;;;;7.00;1.95;;;11.30;89.20;;;;;;5034364;28;20022;-82
2022/01/05 00:51:21;;;;;;;7.22;2.13;;;11.30;89.40;;;;;;5033864;28;20571;-82
2022/01/05 00:53:47;;;;;;;9.00;2.30;;;11.30;89.30;;;;;;5034145;28;20113;-82
2022/01/05 00:56:13;;;;;;;5.85;2.03;;;11.30;89.30;;;;;;5033583;28;20399;-82
2022/01/05 00:58:38;;;;;;;6.55;2.03;;;11.20;89.20;;;;;;5035455;28;20487;-82
2022/01/05 01:01:04;;;;;;;9.68;2.88;;;11.20;88.80;;;;;;5033902;28;20029;-83
2022/01/05 01:03:29;;;;;;;9.40;2.30;;;11.20;88.70;;;;;;5033971;28;20036;-82
2022/01/05 01:05:56;;;;;;;8.27;1.95;;;11.20;88.60;;;;;;5034036;28;20025;-82
2022/01/05 01:08:22;;;;;;;7.93;2.13;;;11.20;88.70;;;;;;5033892;28;20021;-82
2022/01/05 01:10:49;;;;;;;5.43;2.15;;;11.20;88.80;;;;;;5033536;28;20061;-82
2022/01/05 01:13:17;;;;;;;7.97;2.50;;;11.10;88.80;;;;;;5033786;28;20029;-83
2022/01/05 01:15:44;;;;;;;6.75;2.20;;;11.10;88.90;;;;;;5033920;28;20033;-82
2022/01/05 01:18:10;;;;;;;8.38;2.10;;;11.10;89.00;;;;;;5033838;28;20087;-82
2022/01/05 01:20:35;;;;;;;8.52;2.28;;;11.10;89.00;;;;;;5033707;28;20021;-83
2022/01/05 01:23:01;;;;;;;5.45;1.85;;;11.10;89.00;;;;;;5033455;28;20030;-82
2022/01/05 01:25:27;;;;;;;6.65;1.95;;;11.10;88.80;;;;;;5033648;28;20099;-82
2022/01/05 01:27:52;;;;;;;6.95;2.35;;;11.10;88.90;;;;;;5033633;28;20024;-82
2022/01/05 01:30:18;;;;;;;7.72;2.17;;;11.10;88.80;;;;;;5033549;28;20117;-82
2022/01/05 01:32:43;;;;;;;5.70;2.20;;;11.10;88.90;;;;;;5033284;28;20037;-82
2022/01/05 01:35:09;;;;;;;6.90;1.90;;;11.10;88.80;;;;;;5033437;28;20025;-82
2022/01/05 01:37:35;;;;;;;6.53;2.10;;;11.10;88.70;;;;;;5034699;28;20033;-82
2022/01/05 01:40:01;;;;;;;5.95;1.95;;;11.10;88.60;;;;;;5033276;28;20052;-83
2022/01/05 01:42:26;;;;;;;8.80;2.15;;;11.10;88.50;;;;;;5033641;28;20474;-82
2022/01/05 01:44:52;;;;;;;6.40;1.88;;;11.10;88.60;;;;;;5033178;28;20478;-81
2022/01/05 01:47:17;;;;;;;8.23;2.10;;;11.10;88.40;;;;;;5033297;28;20068;-82
2022/01/05 01:49:43;;;;;;;8.77;1.90;;;11.10;88.30;;;;;;5034322;28;20075;-82
2022/01/05 01:52:08;;;;;;;6.53;1.98;;;11.10;88.30;;;;;;5033115;28;20039;-82
2022/01/05 01:54:35;;;;;;;5.80;1.90;;;11.10;88.20;;;;;;5033109;28;20047;-82
2022/01/05 01:57:01;;;;;;;6.45;2.03;;;11.10;88.20;;;;;;5032923;28;20044;-82
2022/01/05 01:59:27;;;;;;;6.72;1.95;;;11.10;88.10;;;;;;5032999;28;20052;-82
2022/01/05 02:01:56;;;;;;;6.47;1.90;;;11.10;88.20;;;;;;5032811;28;20029;-82
2022/01/05 02:04:22;;;;;;;6.88;2.00;;;11.10;88.00;;;;;;5032888;28;20049;-82
2022/01/05 02:06:48;;;;;;;6.65;1.80;;;11.10;87.90;;;;;;5032850;28;20068;-81
2022/01/05 02:09:14;;;;;;;6.60;2.05;;;11.10;87.90;;;;;;5032797;28;20026;-82
2022/01/05 02:11:40;;;;;;;7.68;1.85;;;11.10;88.00;;;;;;5032612;28;20029;-82
2022/01/05 02:14:06;;;;;;;7.35;2.03;;;11.00;87.90;;;;;;5032674;28;20505;-82
2022/01/05 02:16:34;;;;;;;6.15;1.75;;;11.10;87.70;;;;;;5033649;28;20033;-82
2022/01/05 02:19:00;;;;;;;6.78;2.08;;;11.10;87.60;;;;;;5032496;28;20067;-82
2022/01/05 02:21:52;;;;;;;6.07;1.60;;;11.00;87.50;;;;;;5032411;28;20395;-83
2022/01/05 02:24:18;;;;;;;7.43;1.92;;;11.00;87.50;;;;;;5027022;28;20036;-83
2022/01/05 02:26:43;;;;;;;7.05;1.80;;;11.10;87.60;;;;;;5032465;28;20030;-82
2022/01/05 02:29:09;;;;;;;8.05;1.90;;;11.10;87.70;;;;;;5032394;28;20084;-82
2022/01/05 02:31:35;;;;;;;7.47;1.90;;;11.10;87.60;;;;;;5032186;28;20083;-82
2022/01/05 02:34:01;;;;;;;6.13;2.00;;;11.10;87.60;;;;;;5032511;28;20391;-82
2022/01/05 02:36:27;;;;;;;6.25;1.65;;;11.00;87.60;;;;;;5032786;28;20103;-82
2022/01/05 02:38:53;;;;;;;5.22;1.83;;;11.10;87.60;;;;;;5032069;28;20077;-82
2022/01/05 02:41:19;;;;;;;7.60;1.90;;;11.10;87.50;;;;;;5032205;28;20029;-82
2022/01/05 02:43:45;;;;;;;6.47;1.75;;;11.10;87.40;;;;;;5032221;28;20022;-82
2022/01/05 02:46:18;;;;;;;6.40;1.80;;;11.00;87.30;;;;;;5032029;28;20021;-82
2022/01/05 02:48:45;;;;;;;6.10;2.03;;;11.10;87.30;;;;;;5032150;28;20493;-82
2022/01/05 02:51:11;;;;;;;6.22;1.50;;;11.00;87.10;;;;;;5033108;28;20029;-82
2022/01/05 02:53:38;;;;;;;7.72;1.70;;;11.10;87.00;;;;;;5033173;28;20479;-82
2022/01/05 02:56:04;;;;;;;5.40;1.60;;;11.10;86.90;;;;;;5031577;28;20079;-81
2022/01/05 02:58:30;;;;;;;4.85;1.50;;;11.10;86.80;;;;;;5031771;28;20363;-82
2022/01/05 03:00:56;;;;;;;6.90;1.50;;;11.00;86.60;;;;;;5031627;28;20044;-82
2022/01/05 03:03:22;;;;;;;6.50;2.08;;;11.10;86.40;;;;;;5031816;28;20052;-82
2022/01/05 03:05:47;;;;;;;8.18;2.10;;;11.00;86.20;;;;;;5031716;28;20018;-82
2022/01/05 03:08:13;;;;;;;4.70;1.63;;;11.00;86.10;;;;;;5031721;28;20026;-81
2022/01/05 03:10:38;;;;;;;7.22;1.85;;;11.00;86.00;;;;;;5031776;28;20029;-80
2022/01/05 03:13:04;;;;;;;7.88;1.98;;;11.00;86.10;;;;;;5031441;28;20490;-82
2022/01/05 03:15:30;;;;;;;5.80;1.63;;;11.10;86.20;;;;;;5059191;23;20051;-84
2022/01/05 03:17:55;;;;;;;7.32;1.60;;;11.10;86.10;;;;;;5038721;28;20074;-85
2022/01/05 03:20:22;;;;;;;7.57;2.05;;;11.00;86.10;;;;;;5055689;28;20048;-86
2022/01/05 03:22:49;;;;;;;5.75;1.85;;;11.00;86.00;;;;;;5038608;28;20028;-84
2022/01/05 03:25:18;;;;;;;7.70;2.00;;;11.00;86.00;;;;;;5055257;28;20436;-85
2022/01/05 03:27:48;;;;;;;5.50;1.50;;;11.00;85.90;;;;;;5055599;28;20555;-85
2022/01/05 03:30:16;;;;;;;6.93;1.60;;;11.00;86.40;;;;;;5037580;28;20486;-87
2022/01/05 03:35:46;;;;;;;6.88;1.83;;;11.00;86.00;;;;;;5031849;28;20040;-87
2022/01/05 03:38:15;;;;;;;13.35;2.00;;;11.00;85.90;;;;;;5039007;28;20581;-84
2022/01/05 03:40:41;;;;;;;14.02;2.30;;;11.00;85.80;;;;;;5039158;28;20386;-84
2022/01/05 03:43:08;;;;;;;12.02;1.90;;;11.00;85.70;;;;;;5038898;28;20116;-85
2022/01/05 03:45:35;;;;;;;7.40;1.52;;;11.00;85.70;;;;;;5038136;28;20021;-84
2022/01/05 03:48:02;;;;;;;6.18;1.95;;;11.00;85.60;;;;;;5053382;28;20024;-85
2022/01/05 03:50:27;;;;;;;7.78;1.58;;;11.00;85.50;;;;;;5038209;28;20406;-84
2022/01/05 03:52:53;;;;;;;6.15;1.50;;;11.00;85.30;;;;;;5038443;28;20036;-86
2022/01/05 03:55:18;;;;;;;7.43;1.60;;;11.00;85.00;;;;;;5038064;28;20086;-84
2022/01/05 03:57:44;;;;;;;7.93;1.75;;;11.00;85.10;;;;;;5038275;28;20037;-85
2022/01/05 04:00:11;;;;;;;10.02;2.03;;;11.00;84.70;;;;;;5038376;28;20025;-84
2022/01/05 04:02:36;;;;;;;6.63;1.73;;;11.00;84.80;;;;;;5038295;28;20370;-84
2022/01/05 04:05:02;;;;;;;8.65;1.83;;;11.00;84.60;;;;;;5055828;28;20028;-85
2022/01/05 04:07:27;;;;;;;6.30;1.50;;;11.00;84.30;;;;;;5055451;28;20025;-84
2022/01/05 04:09:53;;;;;;;4.88;1.50;;;11.00;84.20;;;;;;5038700;28;20033;-84
2022/01/05 04:12:18;;;;;;;8.18;1.70;;;11.00;84.30;;;;;;5056700;28;20088;-85
2022/01/05 04:14:44;;;;;;;8.18;2.08;;;11.00;84.30;;;;;;5054978;28;20033;-85
2022/01/05 04:17:09;;;;;;;7.30;1.88;;;11.00;84.10;;;;;;5056394;28;20040;-83
2022/01/05 04:19:35;;;;;;;7.43;1.70;;;11.00;84.10;;;;;;5038320;28;20025;-84
2022/01/05 04:22:01;;;;;;;6.97;1.40;;;11.00;83.90;;;;;;5054684;28;20035;-85
2022/01/05 04:24:27;;;;;;;6.35;1.60;;;11.00;84.00;;;;;;5038040;28;20437;-84
2022/01/05 04:26:52;;;;;;;7.75;1.95;;;11.00;84.00;;;;;;5053437;28;20032;-84
2022/01/05 04:29:18;;;;;;;8.38;1.75;;;11.00;83.60;;;;;;5052801;28;20064;-85
2022/01/05 04:31:45;;;;;;;6.20;1.45;;;11.00;83.70;;;;;;5044442;28;20083;-83
2022/01/05 04:34:11;;;;;;;7.10;1.65;;;11.00;83.60;;;;;;5036112;28;20493;-84
2022/01/05 04:36:36;;;;;;;6.68;1.60;;;11.00;83.80;;;;;;5051577;28;20029;-82
2022/01/05 04:39:03;;;;;;;7.55;1.70;;;11.00;83.40;;;;;;5052347;28;20115;-83
2022/01/05 04:41:29;;;;;;;4.63;1.30;;;10.90;83.00;;;;;;5050924;28;20076;-86
2022/01/05 04:43:54;;;;;;;8.05;1.90;;;10.90;83.20;;;;;;5053435;28;20021;-84
2022/01/05 04:46:20;;;;;;;9.07;1.80;;;10.90;84.20;;;;;;5051884;28;20135;-83
2022/01/05 04:48:46;;;;;;;5.05;1.30;;;10.90;84.80;;;;;;5055063;28;20120;-85
2022/01/05 04:51:11;;;;;;;5.97;1.65;;;11.00;85.40;;;;;;5055308;28;20079;-84
2022/01/05 04:53:37;;;;;;;5.32;1.48;;;11.00;85.00;;;;;;5055269;28;20135;-85
2022/01/05 04:56:03;;;;;;;7.22;1.80;;;11.00;84.80;;;;;;5071779;22;20041;-83
2022/01/05 04:58:28;;;;;;;7.03;1.70;;;11.00;85.00;;;;;;5059614;28;20371;-84
2022/01/05 05:00:54;;;;;;;5.57;1.85;;;11.00;84.40;;;;;;5059184;28;20098;-85
2022/01/05 05:03:19;;;;;;;6.35;1.95;;;11.00;84.20;;;;;;5059319;28;20482;-85
2022/01/05 05:05:45;;;;;;;8.75;1.95;;;11.00;84.60;;;;;;5049164;28;20029;-86
2022/01/05 05:08:10;;;;;;;6.00;2.05;;;11.00;84.30;;;;;;5039930;28;20021;-86
2022/01/05 05:10:36;;;;;;;7.50;1.63;;;11.00;83.70;;;;;;5039615;28;20049;-86
2022/01/05 05:13:12;;;;;;;6.60;2.22;;;11.00;83.70;;;;;;5039508;28;20052;-85
2022/01/05 05:15:39;;;;;;;6.90;1.75;;;11.00;83.50;;;;;;5039718;28;20025;-86
2022/01/05 05:18:06;;;;;;;6.65;1.80;;;11.00;83.40;;;;;;5039223;28;20708;-85
2022/01/05 05:20:32;;;;;;;8.35;1.77;;;11.00;83.40;;;;;;5039531;28;20112;-85
2022/01/05 05:22:59;;;;;;;6.90;1.70;;;11.00;83.40;;;;;;5039045;28;20025;-86
2022/01/05 05:25:24;;;;;;;7.68;1.70;;;11.00;83.80;;;;;;5038513;28;20529;-85
2022/01/05 05:27:50;;;;;;;8.13;1.73;;;11.00;82.60;;;;;;5038075;28;20025;-85
2022/01/05 05:30:16;;;;;;;8.10;1.92;;;11.00;82.20;;;;;;5038132;28;20022;-84
2022/01/05 05:32:41;;;;;;;10.25;1.88;;;11.00;82.40;;;;;;5037359;28;20037;-85
2022/01/05 05:35:07;;;;;;;7.32;2.00;;;11.00;82.20;;;;;;5037260;28;20028;-84
2022/01/05 05:37:33;;;;;;;6.95;1.90;;;10.90;81.50;;;;;;5039559;28;20026;-85
2022/01/05 05:39:58;;;;;;;10.13;1.90;;;10.90;81.60;;;;;;5037999;28;20566;-88
2022/01/05 05:42:25;;;;;;;7.57;2.10;;;10.80;81.40;;;;;;5038361;28;20109;-85
2022/01/05 05:44:52;;;;;;;8.05;1.88;;;10.80;81.30;;;;;;5037892;28;20021;-85
2022/01/05 05:47:17;;;;;;;7.85;1.80;;;10.80;81.30;;;;;;5032654;28;20368;-85
2022/01/05 05:49:45;;;;;;;7.97;1.95;;;10.80;81.30;;;;;;5037652;28;20028;-88
2022/01/05 05:52:11;;;;;;;6.85;1.50;;;10.80;81.30;;;;;;5037066;28;20450;-85
2022/01/05 05:54:36;;;;;;;6.50;1.90;;;10.80;81.10;;;;;;5037638;28;20032;-88
2022/01/05 05:57:02;;;;;;;8.93;1.83;;;10.80;81.10;;;;;;5036680;28;20032;-85
2022/01/05 05:59:28;;;;;;;6.07;1.80;;;10.80;81.00;;;;;;5037338;28;20025;-85
2022/01/05 06:01:53;;;;;;;6.13;1.90;;;10.80;80.90;;;;;;5038061;28;20037;-86
2022/01/05 06:04:19;;;;;;;7.63;1.95;;;10.80;81.40;;;;;;5038059;28;20045;-85
2022/01/05 06:06:45;;;;;;;7.60;2.10;;;10.80;80.80;;;;;;5037655;28;20026;-85
2022/01/05 06:09:11;;;;;;;7.95;2.42;;;10.80;80.70;;;;;;5037730;28;20025;-85
2022/01/05 06:11:36;;;;;;;7.50;1.90;;;10.80;80.60;;;;;;5037043;28;20044;-86
2022/01/05 06:14:04;;;;;;;9.88;2.00;;;10.70;80.40;;;;;;5037966;28;20029;-85
2022/01/05 06:16:30;;;;;;;10.90;2.38;;;10.80;80.50;;;;;;5037040;28;20071;-85
2022/01/05 06:18:56;;;;;;;6.05;2.00;;;10.80;80.30;;;;;;5037307;28;20033;-85
2022/01/05 06:21:21;;;;;;;8.73;2.40;;;10.80;80.20;;;;;;5037294;28;20102;-85
2022/01/05 06:23:47;;;;;;;7.95;2.13;;;10.70;80.20;;;;;;5037390;28;20022;-86
2022/01/05 06:26:12;;;;;;;10.10;2.30;;;10.70;79.90;;;;;;5037672;28;20448;-85
2022/01/05 06:28:38;;;;;;;8.50;2.25;;;10.70;79.80;;;;;;5037744;28;20492;-85
2022/01/05 06:31:03;;;;;;;8.45;2.15;;;10.70;79.90;;;;;;5037091;28;20116;-86
2022/01/05 06:33:29;;;;;;;9.40;2.00;;;10.70;79.70;;;;;;5036782;28;20018;-85
2022/01/05 06:35:54;;;;;;;9.05;2.40;;;10.80;79.60;;;;;;5037493;28;20047;-85
2022/01/05 06:38:20;;;;;;;10.45;2.28;;;10.70;79.50;;;;;;5036962;28;20463;-85
2022/01/05 06:40:46;;;;;;;8.38;1.75;;;10.70;79.40;;;;;;5037134;28;20534;-85
2022/01/05 06:43:12;;;;;;;9.68;2.72;;;10.70;79.20;;;;;;5037863;28;20060;-85
2022/01/05 06:45:37;;;;;;;9.30;2.28;;;10.70;79.10;;;;;;5037144;28;20027;-85
2022/01/05 06:48:03;;;;;;;11.25;2.50;;;10.70;79.20;;;;;;5036387;28;20025;-85
2022/01/05 06:50:28;;;;;;;7.78;2.42;;;10.70;79.10;;;;;;5037080;28;20025;-85
2022/01/05 06:52:57;;;;;;;6.57;1.98;;;10.70;79.00;;;;;;5036485;28;20132;-85
2022/01/05 06:55:24;;;;;;;8.52;2.28;;;10.70;78.90;;;;;;5036419;28;20076;-85
2022/01/05 06:57:51;;;;;;;9.05;2.42;;;10.70;78.80;;;;;;5036598;28;20030;-85
2022/01/05 07:00:18;;;;;;;9.88;2.17;;;10.70;78.40;;;;;;5036960;28;20033;-85
2022/01/05 07:02:43;;;;;;;7.30;1.98;;;10.70;78.50;;;;;;5036394;28;20048;-85
2022/01/05 07:05:09;;;;;;;9.68;2.35;;;10.70;78.30;;;;;;5036880;28;20390;-84
2022/01/05 07:07:36;;;;;;;8.35;2.13;;;10.70;78.30;;;;;;5037062;28;20112;-85
2022/01/05 07:10:03;;;;;;;9.32;2.28;;;10.70;78.20;;;;;;5036076;28;20033;-85
2022/01/05 07:12:28;;;;;;;7.82;2.00;;;10.70;78.00;;;;;;5036867;28;20036;-85
2022/01/05 07:14:54;;;;;;;9.85;2.17;;;10.70;78.20;;;;;;5036998;28;20152;-85
2022/01/05 07:17:20;;;;;;;8.57;2.83;;;10.70;78.10;;;;;;5036769;28;20033;-86
2022/01/05 07:19:45;;;;;;;7.47;2.17;;;10.70;77.70;;;;;;5036732;28;20022;-86
2022/01/05 07:22:11;;;;;;;10.48;2.45;;;10.70;77.80;;;;;;5036310;28;20498;-85
2022/01/05 07:24:36;;;;;;;9.10;2.35;;;10.70;77.80;;;;;;5037033;28;20493;-85
2022/01/05 07:27:02;;;;;;;8.52;2.33;;;10.70;77.90;;;;;;5036306;28;20027;-85
2022/01/05 07:29:27;;;;;;;8.30;2.15;;;10.70;77.80;;;;;;5035985;28;20040;-85
2022/01/05 07:31:53;;;;;;;7.50;2.00;;;10.60;77.60;;;;;;5036126;28;20033;-86
2022/01/05 07:34:18;;;;;;;9.18;2.35;;;10.70;77.80;;;;;;5036780;28;20041;-86
2022/01/05 07:36:44;;;;;;;10.15;1.90;;;10.70;77.80;;;;;;5036036;28;20034;-85
2022/01/05 07:39:10;;;;;;;7.68;2.10;;;10.70;77.60;;;;;;5035764;28;20022;-84
2022/01/05 07:41:37;;;;;;;7.68;2.10;;;10.80;77.60;;;;;;5056012;28;20036;-85
2022/01/05 07:44:04;;;;;;;9.00;2.05;;;10.70;77.30;;;;;;5059346;28;20029;-85
2022/01/05 07:46:30;;;;;;;9.73;2.25;;;10.70;77.50;;;;;;5056281;28;20032;-84
2022/01/05 07:48:56;;;;;;;8.80;2.10;;;10.70;77.50;;;;;;5056412;28;20025;-85
2022/01/05 07:51:22;;;;;;;11.85;2.45;;;10.70;77.50;;;;;;5056419;28;20021;-85
2022/01/05 07:53:47;;;;;;;9.75;2.40;;;10.70;77.40;;;;;;5056342;28;20460;-85
2022/01/05 07:56:13;;;;;;;10.80;2.40;;;10.70;77.70;;;;;;5056482;28;20045;-86
2022/01/05 07:58:39;;;;;;;7.80;2.00;;;10.70;77.50;;;;;;5056233;28;20021;-86
2022/01/05 08:01:05;;;;;;;10.43;2.33;;;10.70;77.60;;;;;;5055872;28;20041;-85
2022/01/05 08:03:33;;;;;;;8.00;2.38;;;10.70;77.20;;;;;;5056406;28;20099;-86
2022/01/05 08:06:05;;;;;;;10.77;3.08;;;10.70;77.40;;;;;;5056170;28;20049;-85
2022/01/05 08:08:31;;;;;;;;;;;10.70;77.20;;;;;;5056388;28;20021;-86
2022/01/05 08:10:56;;;;;;;9.40;2.38;;;10.70;77.30;;;;;;5056103;28;20346;-85
2022/01/05 08:13:24;;;;;;;7.50;2.17;;;10.70;77.20;;;;;;5056448;28;20056;-85
2022/01/05 08:15:50;;;;;;;8.32;2.05;;;10.70;77.10;;;;;;5055118;28;20036;-85
2022/01/05 08:18:16;;;;;;;8.18;2.97;;;10.70;77.10;;;;;;5056091;28;20393;-85
2022/01/05 08:20:41;;;;;;;10.77;2.50;;;10.70;77.20;;;;;;5056156;28;20021;-86
2022/01/05 08:23:07;;;;;;;8.52;2.25;;;10.70;76.90;;;;;;5059171;28;20032;-85
2022/01/05 08:25:32;;;;;;;10.07;2.67;;;10.70;76.80;;;;;;5060079;28;20025;-85
2022/01/05 08:27:58;;;;;;;9.18;2.35;;;10.60;76.60;;;;;;5059955;28;20087;-85
2022/01/05 08:30:25;;;;;;;7.72;2.50;;;10.70;76.70;;;;;;5059745;28;20119;-86
2022/01/05 08:32:53;;;;;;;7.65;2.10;;;10.70;76.60;;;;;;5058921;28;20031;-85
2022/01/05 08:35:22;;;;;;;9.35;2.65;;;10.70;76.70;;;;;;5059942;28;20437;-85
2022/01/05 08:37:49;;;;;;;7.63;2.60;;;10.70;76.70;;;;;;5060201;28;20510;-86
2022/01/05 08:40:16;;;;;;;9.45;2.40;;;10.70;76.70;;;;;;5058971;28;20051;-86
2022/01/05 08:42:42;;;;;;;9.55;2.63;;;10.70;76.70;;;;;;5059301;28;20052;-87
2022/01/05 08:45:08;;;;;;;10.20;2.22;;;10.70;76.70;;;;;;5059872;28;20478;-86
2022/01/05 08:47:34;;;;;;;10.48;2.42;;;10.70;76.70;;;;;;5059239;28;20505;-86
2022/01/05 08:50:00;;;;;;;9.43;2.42;;;10.70;76.90;;;;;;5059231;28;20033;-86
2022/01/05 08:52:25;;;;;;;8.18;2.53;;;10.70;77.20;;;;;;5059549;28;20095;-86
2022/01/05 08:54:51;;;;;;;8.50;2.72;;;10.60;76.60;;;;;;5058418;28;20494;-85
2022/01/05 08:57:17;;;;;;;9.35;2.50;;;10.70;76.50;;;;;;5059777;28;20039;-87
2022/01/05 08:59:43;;;;;;;11.43;3.20;;;10.60;76.50;;;;;;5059037;28;20584;-87
2022/01/05 09:02:09;;;;;;;8.80;2.70;;;10.60;76.70;;;;;;5058498;28;20056;-85
2022/01/05 09:04:34;;;;;;;8.50;2.40;;;10.70;76.80;;;;;;5058478;28;20025;-86
2022/01/05 09:07:00;;;;;;;7.00;2.42;;;10.60;76.60;;;;;;5058707;28;20551;-86
2022/01/05 09:09:26;;;;;;;9.15;2.65;;;10.60;76.70;;;;;;5058702;28;20489;-85
2022/01/05 09:11:52;;;;;;;11.45;3.40;;;10.60;76.60;;;;;;5058284;28;20033;-87
2022/01/05 09:14:18;;;;;;;7.85;2.55;;;10.60;76.70;;;;;;5059068;28;20036;-85
2022/01/05 09:16:43;;;;;;;9.40;2.88;;;10.60;76.60;;;;;;5074873;22;20477;-81
2022/01/05 09:19:09;;;;;;;9.55;3.00;;;10.60;76.70;;;;;;5056903;28;20111;-81
2022/01/05 09:21:35;;;;;;;7.88;2.78;;;10.60;76.70;;;;;;5056775;28;20128;-81
2022/01/05 09:24:00;;;;;;;8.43;3.00;;;10.60;76.70;;;;;;5057173;28;20074;-81
2022/01/05 09:26:26;;;;;;;7.65;2.80;;;10.60;76.70;;;;;;5056808;28;20027;-81
2022/01/05 09:28:51;;;;;;;10.30;3.10;;;10.60;76.60;;;;;;5056823;28;20044;-81
2022/01/05 09:31:17;;;;;;;8.27;3.20;;;10.60;76.70;;;;;;5056565;28;20074;-81
2022/01/05 09:33:42;;;;;;;8.55;3.30;;;10.60;76.50;;;;;;5056532;28;20021;-81
2022/01/05 09:36:16;;;;;;;8.70;3.10;;;10.60;76.60;;;;;;5056686;28;20593;-81
2022/01/05 09:44:03;;;;;;;10.05;3.25;;;10.60;76.40;;;;;;5074860;28;20039;-82
2022/01/05 09:46:43;;;;;;;7.88;3.03;;;10.60;76.40;;;;;;5056441;28;20028;-81
2022/01/05 09:49:24;;;;;;;8.35;3.50;;;10.60;76.20;;;;;;5056474;28;20033;-81
2022/01/05 09:51:51;;;;;;;9.93;3.67;;;10.60;77.20;;;;;;5055962;28;20021;-81
2022/01/05 09:54:17;;;;;;;8.63;3.55;;;10.60;78.40;;;;;;5056514;28;20017;-81
2022/01/05 09:56:43;;;;;;;8.13;3.63;;;10.60;77.20;;;;;;5056110;28;20023;-81
2022/01/05 09:59:09;;;;;;;7.97;3.33;;;10.60;77.30;;;;;;5056265;28;20081;-80
2022/01/05 10:01:36;;;;;;;8.55;3.40;;;10.60;76.60;;;;;;5056132;28;20115;-81
2022/01/05 10:04:02;;;;;;;7.57;3.83;;;10.60;76.80;;;;;;5056144;28;20028;-81
2022/01/05 10:06:28;;;;;;;7.72;3.67;;;10.70;76.90;;;;;;5056211;28;20021;-80
2022/01/05 10:08:53;;;;;;;7.18;3.78;;;10.70;76.70;;;;;;5056078;28;20495;-81
2022/01/05 10:11:23;;;;;;;9.00;4.20;;;10.70;76.90;;;;;;5056005;28;20024;-81
2022/01/05 10:13:50;;;;;;;10.50;3.90;;;10.70;76.80;;;;;;5055929;28;20025;-80
2022/01/05 10:16:16;;;;;;;9.93;4.18;;;10.70;76.50;;;;;;5073837;28;20034;-80
2022/01/05 10:18:44;;;;;;;7.43;3.92;;;10.60;76.60;;;;;;5055950;28;20444;-80
2022/01/05 10:21:12;;;;;;;9.77;4.05;;;10.70;76.80;;;;;;5055704;28;20478;-80
2022/01/05 10:23:41;;;;;;;8.30;3.75;;;10.70;77.00;;;;;;5055691;28;20161;-80
2022/01/05 10:26:24;;;;;;;6.53;3.50;;;10.70;76.90;;;;;;5055710;28;20024;-80
2022/01/05 10:28:53;;;;;;;8.25;4.13;;;10.70;76.90;;;;;;5055701;28;20493;-80
2022/01/05 10:31:36;;;;;;;8.98;3.80;;;10.70;76.60;;;;;;5055368;28;20044;-80
2022/01/05 10:34:18;;;;;;;8.40;3.40;;;10.70;76.40;;;;;;5073814;28;20032;-80
2022/01/05 10:36:57;;;;;;;8.23;4.20;;;10.70;76.50;;;;;;5055562;28;20107;-80
2022/01/05 10:39:30;;;;;;;7.75;3.55;;;10.70;76.10;;;;;;5055452;28;20075;-79
2022/01/05 10:41:55;;;;;;;7.80;3.50;;;10.60;76.00;;;;;;5055324;28;20024;-80
2022/01/05 10:44:24;;;;;;;8.15;3.28;;;10.70;76.10;;;;;;5054672;28;20425;-80
2022/01/05 10:46:58;;;;;;;9.25;3.42;;;10.60;76.10;;;;;;5055290;28;20107;-80
2022/01/05 10:49:31;;;;;;;9.75;3.70;;;10.60;76.10;;;;;;5073517;28;20111;-79
2022/01/05 10:51:59;;;;;;;7.88;3.53;;;10.60;76.20;;;;;;5055117;28;20021;-81
2022/01/05 10:54:28;;;;;;;9.63;3.00;;;10.60;76.60;;;;;;5055279;28;20056;-81
2022/01/05 10:56:54;;;;;;;8.82;3.78;;;10.50;76.50;;;;;;5055052;28;20033;-81
2022/01/05 10:59:39;;;;;;;5.30;2.65;;;10.50;76.60;;;;;;5055280;28;20123;-81
2022/01/05 11:02:25;;;;;;;6.93;3.10;;;10.50;76.40;;;;;;5054843;28;20020;-80
2022/01/05 11:04:58;;;;;;;8.20;2.97;;;10.50;76.50;;;;;;5055051;28;20477;-80
2022/01/05 11:07:26;;;;;;;4.85;2.30;;;10.50;76.50;;;;;;5055067;28;20052;-81
2022/01/05 11:10:01;;;;;;;6.95;2.78;;;10.50;76.50;;;;;;5054967;28;20105;-80
2022/01/05 11:12:41;;;;;;;6.28;2.40;;;10.50;76.40;;;;;;5054760;28;20402;-78
2022/01/05 11:15:31;;;;;;;7.40;2.80;;;10.50;76.40;;;;;;5054922;28;20397;-78
2022/01/05 11:18:16;;;;;;;;;;;10.50;76.30;;;;;;5055370;28;20495;-78
2022/01/05 11:21:13;;;;;;;5.50;2.45;;;10.50;76.30;;;;;;5054667;28;20385;-77
2022/01/05 11:23:39;;;;;;;5.22;2.03;;;10.50;76.30;;;;;;5067955;28;20082;-78
2022/01/05 11:26:06;;;;;;;5.00;2.00;;;10.50;76.30;;;;;;5054580;28;20021;-78
2022/01/05 11:28:31;;;;;;;6.60;2.20;;;10.50;76.40;;;;;;5054731;28;20547;-78
2022/01/05 11:30:58;;;;;;;4.93;1.98;;;10.50;76.50;;;;;;5054467;28;20024;-80
2022/01/05 11:33:24;;;;;;;6.28;2.17;;;10.50;76.50;;;;;;5054564;28;20078;-78
2022/01/05 11:35:50;;;;;;;8.38;2.20;;;10.50;76.40;;;;;;5054836;28;20020;-77
2022/01/05 11:38:16;;;;;;;14.10;2.85;;;10.40;76.10;;;;;;5054473;28;20035;-77
2022/01/05 11:40:52;;;;;;;13.90;2.47;;;10.40;76.50;;;;;;5072248;28;20028;-76
2022/01/05 11:43:28;;;;;;;11.23;2.60;;;10.40;77.20;;;;;;5054572;28;20024;-77
2022/01/05 11:45:55;;;;;;;9.45;2.10;;;10.40;77.70;;;;;;5072420;28;20012;-77
2022/01/05 11:48:20;;;;;;;11.52;1.80;;;10.40;77.70;;;;;;5054490;28;20025;-79
2022/01/05 11:50:48;;;;;;;7.95;1.90;;;10.40;77.90;;;;;;5054122;28;20031;-79
2022/01/05 11:53:14;;;;;;;6.05;1.88;;;10.50;77.90;;;;;;5054573;28;20029;-79
2022/01/05 11:55:58;;;;;;;7.40;2.15;;;10.50;77.90;;;;;;5055514;28;20131;-79
2022/01/05 11:58:26;;;;;;;5.40;1.60;;;10.50;78.00;;;;;;5076445;28;20481;-80
2022/01/05 12:01:17;;;;;;;5.47;1.83;;;10.50;77.90;;;;;;5058269;28;20032;-79
2022/01/05 12:03:57;;;;;;;4.95;1.70;;;10.50;78.00;;;;;;5058389;28;20017;-79
2022/01/05 12:07:02;;;;;;;4.57;1.45;;;10.50;78.10;;;;;;5058327;28;20028;-79
2022/01/05 12:09:30;;;;;;;5.07;1.73;;;10.50;78.20;;;;;;5058505;28;20120;-79
2022/01/05 12:12:00;;;;;;;4.55;1.67;;;10.50;78.10;;;;;;5058029;28;20512;-79
2022/01/05 12:14:28;;;;;;;4.93;1.70;;;10.40;78.10;;;;;;5058321;28;20074;-79
2022/01/05 12:17:02;;;;;;;3.65;1.50;;;10.50;78.10;;;;;;5058053;28;20153;-79
2022/01/05 12:19:55;;;;;;;6.38;1.50;;;10.50;78.10;;;;;;5058097;28;20482;-78
2022/01/05 12:22:31;;;;;;;3.28;1.33;;;10.50;78.10;;;;;;5057761;28;20078;-78
2022/01/05 12:25:05;;;;;;;3.08;1.33;;;10.50;78.10;;;;;;5058031;28;20082;-79
2022/01/05 12:27:35;;;;;;;5.00;1.42;;;10.50;78.20;;;;;;5057968;28;20074;-78
2022/01/05 12:30:23;;;;;;;3.47;1.30;;;10.50;78.20;;;;;;5057970;28;20033;-79
2022/01/05 12:33:08;;;;;;;3.70;1.50;;;10.50;78.40;;;;;;5040268;28;20405;-77
2022/01/05 12:36:01;;;;;;;5.07;1.40;;;10.50;78.40;;;;;;5057744;28;20032;-78
2022/01/05 12:38:51;;;;;;;3.83;1.40;;;10.50;78.40;;;;;;5054007;28;20520;-79
2022/01/05 12:41:26;;;;;;;3.15;1.38;;;10.50;78.40;;;;;;5045855;28;20072;-80
2022/01/05 12:43:53;;;;;;;3.95;1.48;;;10.50;78.40;;;;;;5057638;28;20060;-79
2022/01/05 12:46:54;;;;;;;4.55;1.15;;;10.50;78.50;;;;;;5057567;28;20503;-79
2022/01/05 12:49:29;;;;;;;3.33;1.30;;;10.50;78.50;;;;;;5057686;28;20025;-79
2022/01/05 12:52:12;;;;;;;3.45;1.63;;;10.50;78.60;;;;;;5057522;28;20031;-80
2022/01/05 12:54:53;;;;;;;2.28;1.20;;;10.50;78.70;;;;;;5057562;28;20108;-78
2022/01/05 12:57:25;;;;;;;5.18;1.83;;;10.50;78.70;;;;;;5057480;28;20025;-78